Terminal Aerodrome Forecast
Issued by NWS

Home | Current Version | Previous Version | Graphics & Text | Print | Product List | Glossary On
Versions: 1 2 3 4 5 6 7 8 9 10 11 12 13 14 15 16 17 18
000
FTUS41 KCLE 182351
TAFFDY
TAF
KFDY 182351Z 1900/1924 14008KT P6SM BKN250
     FM191100 18010KT 4SM -RA OVC015
     FM191400 20012KT 2SM RA BR BKN005 OVC012 WS020/22045KT
     FM192000 21015G25KT P6SM BKN012 OVC035=

USA.gov is the U.S. government's official web portal to all federal, state and local government web resources and services.